createdAt,value
2023-01-19T00:00:07.550Z,126.78932
2023-01-19T00:05:09.174Z,128.43114
2023-01-19T00:10:10.760Z,126.78932
2023-01-19T00:15:12.268Z,127.8806
2023-01-19T00:20:14.121Z,127.33333
2023-01-19T00:25:16.161Z,126.78932
2023-01-19T00:30:17.957Z,126.78932
2023-01-19T00:35:19.677Z,127.8806
2023-01-19T00:40:21.574Z,126.78932
2023-01-19T00:45:23.280Z,126.78932
2023-01-19T00:50:24.820Z,126.24852
2023-01-19T00:55:26.798Z,126.78932
2023-01-19T01:00:28.943Z,127.33333
2023-01-19T01:05:30.704Z,127.8806
2023-01-19T01:10:32.268Z,126.78932
2023-01-19T01:15:34.023Z,128.43114
2023-01-19T01:20:36.386Z,127.33333
2023-01-19T01:25:38.663Z,127.33333
2023-01-19T01:30:40.461Z,131.23404
2023-01-19T01:35:42.231Z,135.90031
2023-01-19T01:40:44.014Z,134.12346
2023-01-19T01:45:45.829Z,134.71207
2023-01-19T01:50:47.483Z,134.12346
2023-01-19T01:55:49.134Z,135.30435
2023-01-19T02:00:50.847Z,134.71207
2023-01-19T02:05:52.398Z,131.80488
2023-01-19T02:10:54.179Z,132.3792
2023-01-19T02:15:55.878Z,131.80488
2023-01-19T02:20:57.495Z,134.12346
2023-01-19T02:25:59.993Z,132.3792
2023-01-19T02:31:01.620Z,130.10272
2023-01-19T02:36:03.453Z,130.66667
2023-01-19T02:41:05.000Z,135.30435
2023-01-19T02:46:06.810Z,137.10345
2023-01-19T02:51:08.361Z,142.07074
2023-01-19T02:56:10.648Z,140.17834
2023-01-19T03:01:12.263Z,135.30435
2023-01-19T03:06:13.891Z,134.71207
2023-01-19T03:11:15.669Z,133.53846
2023-01-19T03:16:17.489Z,131.80488
2023-01-19T03:21:19.364Z,130.66667
2023-01-19T03:26:21.338Z,130.66667
2023-01-19T03:31:23.089Z,125.71091
2023-01-19T03:36:24.898Z,125.17647
2023-01-19T03:41:26.644Z,126.24852
2023-01-19T03:46:28.451Z,124.64516
2023-01-19T03:51:30.239Z,126.78932
2023-01-19T03:56:32.282Z,130.66667
2023-01-19T04:01:34.186Z,126.78932
2023-01-19T04:06:36.027Z,125.71091
2023-01-19T04:11:37.585Z,116.54902
2023-01-19T04:16:39.374Z,115.11111
2023-01-19T04:21:41.143Z,114.16575
2023-01-19T04:26:43.601Z,111.84741
2023-01-19T04:31:45.413Z,110.48649
2023-01-19T04:36:47.045Z,112.30601
2023-01-19T04:41:48.945Z,113.23077
2023-01-19T04:46:50.742Z,113.23077
2023-01-19T04:51:52.618Z,107.39523
2023-01-19T04:56:55.352Z,105.25654
2023-01-19T05:01:56.989Z,109.5914
2023-01-19T05:06:58.486Z,112.30601
2023-01-19T05:12:00.217Z,116.06704
2023-01-19T05:17:01.821Z,119.49858
2023-01-19T05:22:03.757Z,112.76712
2023-01-19T05:27:06.251Z,123.59184
2023-01-19T05:32:07.822Z,122.55072
2023-01-19T05:37:09.489Z,117.03371
2023-01-19T05:42:11.178Z,122.55072
2023-01-19T05:47:13.037Z,121.01149
2023-01-19T05:52:14.925Z,126.24852
2023-01-19T05:57:16.791Z,124.64516
2023-01-19T06:02:18.613Z,125.71091
2023-01-19T06:07:20.323Z,123.06977
2023-01-19T06:12:22.187Z,120.5043
2023-01-19T06:17:23.841Z,129.54217
2023-01-19T06:22:25.502Z,140.17834
2023-01-19T06:27:27.459Z,146.63158
2023-01-19T06:32:29.250Z,168
2023-01-19T06:37:31.024Z,150.02007
2023-01-19T06:42:32.834Z,164.78853
2023-01-19T06:47:34.578Z,164.78853
2023-01-19T06:52:36.364Z,170.47059
2023-01-19T06:57:39.072Z,184.625
2023-01-19T07:02:40.929Z,193.39271
2023-01-19T07:07:42.721Z,191.38956
2023-01-19T07:12:44.589Z,196.45902
2023-01-19T07:17:46.149Z,198.54545
2023-01-19T07:22:48.020Z,198.54545
2023-01-19T07:27:50.464Z,238.73684
2023-01-19T07:32:52.183Z,230.51163
2023-01-19T07:37:54.049Z,208.37768
2023-01-19T07:42:55.836Z,215.36564
2023-01-19T07:47:57.413Z,233.20188
2023-01-19T07:52:59.687Z,234.56604
2023-01-19T07:58:01.690Z,230.51163
2023-01-19T08:03:03.673Z,222.73303
2023-01-19T08:08:05.576Z,253.54774
2023-01-19T08:13:07.455Z,230.51163
2023-01-19T08:18:09.044Z,256.69036
2023-01-19T08:23:10.642Z,238.73684
2023-01-19T08:28:13.247Z,235.94313
2023-01-19T08:33:14.717Z,253.54774
2023-01-19T08:38:16.355Z,259.89744
2023-01-19T08:43:18.117Z,280.61202
2023-01-19T08:48:19.839Z,269.92593
2023-01-19T08:53:21.369Z,290.06742
2023-01-19T08:58:23.062Z,280.61202
2023-01-19T09:03:24.598Z,312.86228
2023-01-19T09:08:26.271Z,298.02299
2023-01-19T09:13:27.782Z,312.86228
2023-01-19T09:18:29.286Z,319.60976
2023-01-19T09:23:30.769Z,349.26316
2023-01-19T09:28:32.824Z,387.16547
2023-01-19T09:33:34.486Z,344
2023-01-19T09:38:35.929Z,363.04762
2023-01-19T09:43:37.614Z,324.24691
2023-01-19T09:48:39.232Z,344
2023-01-19T09:53:41.084Z,414.22901
2023-01-19T09:58:43.259Z,387.16547
2023-01-19T10:03:44.808Z,384
2023-01-19T10:08:46.602Z,432.88889
2023-01-19T10:13:48.233Z,346.61438
2023-01-19T10:18:50.031Z,390.37681
2023-01-19T10:23:51.751Z,284.33149
2023-01-19T10:28:53.841Z,298.02299
2023-01-19T10:33:56.631Z,298.02299
2023-01-19T10:38:58.134Z,294
2023-01-19T10:43:59.845Z,436.8
2023-01-19T10:49:01.471Z,365.91781
2023-01-19T10:54:03.197Z,390.37681
2023-01-19T10:59:05.247Z,417.84615
2023-01-19T11:04:06.969Z,429.03937
2023-01-19T11:09:08.581Z,421.51938
2023-01-19T11:14:10.227Z,371.77778
2023-01-19T11:19:11.927Z,525.13208
2023-01-19T11:24:13.400Z,425.25
2023-01-19T11:29:15.791Z,572.57143
2023-01-19T11:34:17.455Z,668.70588
2023-01-19T11:39:18.959Z,566.22222
2023-01-19T11:44:20.583Z,799.55556
2023-01-19T11:49:22.184Z,338.87179
2023-01-19T11:54:23.809Z,230.51163
2023-01-19T11:59:25.882Z,292.0226
2023-01-19T12:04:27.502Z,414.22901
2023-01-19T12:09:29.291Z,453.09091
2023-01-19T12:14:31.212Z,387.16547
2023-01-19T12:19:33.054Z,368.82759
2023-01-19T12:24:34.958Z,360.21622
2023-01-19T12:29:37.359Z,344
2023-01-19T12:34:39.121Z,331.42138
2023-01-19T12:39:40.918Z,296
2023-01-19T12:44:42.728Z,432.88889
2023-01-19T12:49:44.486Z,393.63504
2023-01-19T12:54:46.282Z,341.41935
2023-01-19T12:59:48.337Z,336.35669
2023-01-19T13:04:50.102Z,368.82759
2023-01-19T13:09:51.898Z,349.26316
2023-01-19T13:14:53.793Z,579.05155
2023-01-19T13:19:55.414Z,765.33333
2023-01-19T13:24:57.026Z,613.56522
2023-01-19T13:30:00.242Z,504
2023-01-19T13:35:02.483Z,421.51938
2023-01-19T13:40:04.468Z,484.35088
2023-01-19T13:45:06.068Z,579.05155
2023-01-19T13:50:07.651Z,377.80282
2023-01-19T13:55:10.009Z,436.8
2023-01-19T14:00:12.556Z,396.94118
2023-01-19T14:05:14.417Z,298.02299
2023-01-19T14:10:15.944Z,240.15385
2023-01-19T14:15:17.452Z,234.56604
2023-01-19T14:20:18.896Z,206.12766
2023-01-19T14:25:21.206Z,196.45902
2023-01-19T14:30:23.267Z,207.24786
2023-01-19T14:35:25.020Z,176.45283
2023-01-19T14:40:33.997Z,151.40741
2023-01-19T14:45:36.088Z,138.93671
2023-01-19T14:50:37.888Z,127.33333
2023-01-19T14:55:39.896Z,137.71069
2023-01-19T15:00:42.364Z,138.32177
2023-01-19T15:05:44.311Z,125.17647
2023-01-19T15:10:46.084Z,116.06704
2023-01-19T15:15:47.977Z,140.80511
2023-01-19T15:20:49.793Z,159.38462
2023-01-19T15:25:51.652Z,156.41379
2023-01-19T15:30:53.981Z,172.99628
2023-01-19T15:35:55.900Z,182.75969
2023-01-19T15:40:57.801Z,186.51969
2023-01-19T15:45:59.391Z,191.38956
2023-01-19T15:51:00.943Z,174.71161
2023-01-19T15:56:02.508Z,162.43972
2023-01-19T16:01:04.402Z,168
2023-01-19T16:06:05.974Z,149.33333
2023-01-19T16:11:07.548Z,172.14815
2023-01-19T16:16:09.173Z,164
2023-01-19T16:21:10.657Z,165.58273
2023-01-19T16:26:12.062Z,160.90141
2023-01-19T16:31:13.998Z,146.63158
2023-01-19T16:36:15.733Z,147.30033
2023-01-19T16:41:17.166Z,142.07074
2023-01-19T16:46:18.668Z,149.33333
2023-01-19T16:51:20.160Z,141.4359
2023-01-19T16:56:21.682Z,119.49858
2023-01-19T17:01:23.810Z,117.52113
2023-01-19T17:06:25.386Z,111.84741
2023-01-19T17:11:26.892Z,125.71091
2023-01-19T17:16:28.481Z,110.03774
2023-01-19T17:21:30.009Z,97.61596
2023-01-19T17:26:31.516Z,106.10526
2023-01-19T17:31:33.720Z,108.70588
2023-01-19T17:36:35.222Z,102.76289
2023-01-19T17:41:36.682Z,98
2023-01-19T17:46:38.180Z,99.55556
2023-01-19T17:51:39.882Z,96.09877
2023-01-19T17:56:41.652Z,95.72414
2023-01-19T18:01:43.387Z,99.16373
2023-01-19T18:06:45.050Z,111.3913
2023-01-19T18:11:46.766Z,94.2439
2023-01-19T18:16:48.380Z,106.96296
2023-01-19T18:21:50.188Z,115.58774
2023-01-19T18:26:53.681Z,104.83551
2023-01-19T18:31:56.751Z,102.76289
2023-01-19T18:36:58.281Z,95.72414
2023-01-19T18:41:59.817Z,98
2023-01-19T18:47:01.290Z,93.51456
2023-01-19T18:52:02.993Z,92.43373
2023-01-19T18:57:04.479Z,89.28302
2023-01-19T19:02:06.288Z,91.01671
2023-01-19T19:07:07.810Z,88.94118
2023-01-19T19:12:09.277Z,106.96296
2023-01-19T19:17:10.743Z,104
2023-01-19T19:22:12.186Z,116.06704
2023-01-19T19:27:13.762Z,104.83551
2023-01-19T19:32:15.567Z,111.3913
2023-01-19T19:37:17.066Z,112.30601
2023-01-19T19:42:18.784Z,120.5043
2023-01-19T19:47:20.539Z,99.16373
2023-01-19T19:52:22.573Z,96.47525
2023-01-19T19:57:24.371Z,104
2023-01-19T20:02:26.636Z,100.743
2023-01-19T20:07:28.465Z,96.47525
2023-01-19T20:12:30.415Z,93.51456
2023-01-19T20:17:32.279Z,91.36842
2023-01-19T20:22:34.124Z,90.66667
2023-01-19T20:27:35.916Z,94.98039
2023-01-19T20:32:37.972Z,93.15254
2023-01-19T20:37:39.449Z,92.79227
2023-01-19T20:42:40.952Z,107.39523
2023-01-19T20:47:42.461Z,108.26667
2023-01-19T20:52:43.901Z,99.94937
2023-01-19T20:57:45.819Z,94.61125
2023-01-19T21:02:47.560Z,94.61125
2023-01-19T21:07:49.391Z,97.61596
2023-01-19T21:12:51.181Z,96.09877
2023-01-19T21:17:52.997Z,96.8536
2023-01-19T21:22:55.134Z,98.38596
2023-01-19T21:27:56.824Z,99.94937
2023-01-19T21:32:58.923Z,98.77387
2023-01-19T21:38:00.798Z,97.61596
2023-01-19T21:43:02.350Z,95.72414
2023-01-19T21:48:04.119Z,93.51456
2023-01-19T21:53:05.809Z,92.07692
2023-01-19T21:58:07.349Z,94.61125
2023-01-19T22:03:09.109Z,99.94937
2023-01-19T22:08:10.657Z,108.26667
2023-01-19T22:13:12.354Z,111.3913
2023-01-19T22:18:13.794Z,113.23077
2023-01-19T22:23:15.398Z,113.23077
2023-01-19T22:28:16.865Z,114.16575
2023-01-19T22:33:18.736Z,112.30601
2023-01-19T22:38:20.333Z,111.3913
2023-01-19T22:43:22.096Z,114.63712
2023-01-19T22:48:23.940Z,112.76712
2023-01-19T22:53:25.699Z,104.41667
2023-01-19T22:58:27.695Z,100.743
2023-01-19T23:03:29.914Z,96.8536
2023-01-19T23:08:31.966Z,91.01671
2023-01-19T23:13:33.543Z,91.01671
2023-01-19T23:18:35.493Z,93.51456
2023-01-19T23:23:37.288Z,94.61125
2023-01-19T23:28:39.193Z,101.14286
2023-01-19T23:33:41.625Z,100.743
2023-01-19T23:38:43.586Z,111.3913
2023-01-19T23:43:45.141Z,117.52113
2023-01-19T23:48:47.196Z,121.01149
2023-01-19T23:53:49.000Z,118.50425
2023-01-19T23:58:50.686Z,121.52161
